createdAt,value
2023-04-30T00:00:13.555Z,100.00
2023-04-30T00:02:43.171Z,100.00
2023-04-30T00:05:10.695Z,100.00
2023-04-30T00:07:42.367Z,100.00
2023-04-30T00:10:11.342Z,100.00
2023-04-30T00:12:38.996Z,100.00
2023-04-30T00:15:07.232Z,100.00
2023-04-30T00:17:34.764Z,100.00
2023-04-30T00:20:02.320Z,100.00
2023-04-30T00:22:29.705Z,100.00
2023-04-30T00:24:57.203Z,100.00
2023-04-30T00:27:24.732Z,100.00
2023-04-30T00:29:52.457Z,100.00
2023-04-30T00:32:20.032Z,100.00
2023-04-30T00:34:47.797Z,100.00
2023-04-30T00:37:15.461Z,100.00
2023-04-30T00:39:42.925Z,100.00
2023-04-30T00:42:10.553Z,100.00
2023-04-30T00:44:37.998Z,100.00
2023-04-30T00:47:05.457Z,100.00
2023-04-30T00:49:33.482Z,100.00
2023-04-30T00:52:01.722Z,100.00
2023-04-30T00:54:29.261Z,100.00
2023-04-30T00:56:56.870Z,100.00
2023-04-30T00:59:25.403Z,100.00
2023-04-30T01:01:53.936Z,100.00
2023-04-30T01:04:21.824Z,100.00
2023-04-30T01:06:49.774Z,100.00
2023-04-30T01:09:20.142Z,100.00
2023-04-30T01:11:47.460Z,100.00
2023-04-30T01:14:28.379Z,100.00
2023-04-30T01:17:22.015Z,100.00
2023-04-30T01:19:49.946Z,100.00
2023-04-30T01:22:27.361Z,100.00
2023-04-30T01:25:22.741Z,100.00
2023-04-30T01:28:16.492Z,100.00
2023-04-30T01:30:47.577Z,100.00
2023-04-30T01:33:15.071Z,100.00
2023-04-30T01:35:56.714Z,100.00
2023-04-30T01:38:48.926Z,100.00
2023-04-30T01:41:25.384Z,100.00
2023-04-30T01:44:01.342Z,100.00
2023-04-30T01:46:32.036Z,100.00
2023-04-30T01:49:26.140Z,100.00
2023-04-30T01:52:06.814Z,100.00
2023-04-30T01:54:45.745Z,100.00
2023-04-30T01:57:24.355Z,100.00
2023-04-30T01:59:53.416Z,100.00
2023-04-30T02:02:20.922Z,100.00
2023-04-30T02:04:48.663Z,100.00
2023-04-30T02:07:33.715Z,100.00
2023-04-30T02:10:01.773Z,100.00
2023-04-30T02:12:30.354Z,100.00
2023-04-30T02:14:57.896Z,100.00
2023-04-30T02:17:25.385Z,100.00
2023-04-30T02:19:53.087Z,100.00
2023-04-30T02:22:20.792Z,100.00
2023-04-30T02:24:48.205Z,100.00
2023-04-30T02:27:16.374Z,100.00
2023-04-30T02:29:43.778Z,100.00
2023-04-30T02:32:11.119Z,100.00
2023-04-30T02:34:38.659Z,100.00
2023-04-30T02:37:07.126Z,100.00
2023-04-30T02:39:34.478Z,100.00
2023-04-30T02:42:01.819Z,100.00
2023-04-30T02:44:30.042Z,100.00
2023-04-30T02:46:57.479Z,100.00
2023-04-30T02:49:24.852Z,100.00
2023-04-30T02:51:53.161Z,100.00
2023-04-30T02:54:20.645Z,100.00
2023-04-30T02:56:49.705Z,100.00
2023-04-30T02:59:17.593Z,100.00
2023-04-30T03:01:45.032Z,100.00
2023-04-30T03:04:13.784Z,100.00
2023-04-30T03:06:41.250Z,100.00
2023-04-30T03:09:09.076Z,100.00
2023-04-30T03:11:37.832Z,100.00
2023-04-30T03:14:05.425Z,100.00
2023-04-30T03:16:33.115Z,100.00
2023-04-30T03:19:00.488Z,100.00
2023-04-30T03:21:27.957Z,100.00
2023-04-30T03:23:55.524Z,100.00
2023-04-30T03:26:23.013Z,100.00
2023-04-30T03:28:50.774Z,100.00
2023-04-30T03:31:18.338Z,100.00
2023-04-30T03:33:45.752Z,100.00
2023-04-30T03:36:13.177Z,100.00
2023-04-30T03:38:41.898Z,100.00
2023-04-30T03:41:09.278Z,100.00
2023-04-30T03:43:38.046Z,100.00
2023-04-30T03:46:05.869Z,100.00
2023-04-30T03:48:33.303Z,100.00
2023-04-30T03:51:00.755Z,100.00
2023-04-30T03:53:28.261Z,100.00
2023-04-30T03:55:56.352Z,100.00
2023-04-30T03:58:24.067Z,100.00
2023-04-30T04:00:57.183Z,100.00
2023-04-30T04:03:25.164Z,100.00
2023-04-30T04:05:52.583Z,100.00
2023-04-30T04:08:20.179Z,100.00
2023-04-30T04:10:48.251Z,100.00
2023-04-30T04:13:15.980Z,100.00
2023-04-30T04:15:43.414Z,100.00
2023-04-30T04:18:11.668Z,100.00
2023-04-30T04:20:39.832Z,100.00
2023-04-30T04:23:07.477Z,100.00
2023-04-30T04:25:35.337Z,100.00
2023-04-30T04:28:02.684Z,100.00
2023-04-30T04:30:30.649Z,100.00
2023-04-30T04:32:58.789Z,100.00
2023-04-30T04:35:26.245Z,100.00
2023-04-30T04:37:53.720Z,100.00
2023-04-30T04:40:21.164Z,100.00
2023-04-30T04:42:51.517Z,100.00
2023-04-30T04:45:20.686Z,100.00
2023-04-30T04:47:49.823Z,100.00
2023-04-30T04:50:18.318Z,100.00
2023-04-30T04:52:46.243Z,100.00
2023-04-30T04:55:14.168Z,100.00
2023-04-30T04:57:42.594Z,100.00
2023-04-30T05:00:11.833Z,100.00
2023-04-30T05:02:39.281Z,100.00
2023-04-30T05:05:07.236Z,100.00
2023-04-30T05:07:35.438Z,100.00
2023-04-30T05:10:03.251Z,100.00
2023-04-30T05:12:31.901Z,100.00
2023-04-30T05:14:59.483Z,100.00
2023-04-30T05:17:26.965Z,100.00
2023-04-30T05:19:54.585Z,100.00
2023-04-30T05:22:22.124Z,100.00
2023-04-30T05:24:49.505Z,100.00
2023-04-30T05:27:17.259Z,100.00
2023-04-30T05:29:44.570Z,100.00
2023-04-30T05:32:11.897Z,100.00
2023-04-30T05:34:39.280Z,100.00
2023-04-30T05:37:06.655Z,100.00
2023-04-30T05:39:34.299Z,100.00
2023-04-30T05:42:02.701Z,100.00
2023-04-30T05:44:33.032Z,100.00
2023-04-30T05:47:00.355Z,100.00
2023-04-30T05:49:27.790Z,100.00
2023-04-30T05:51:55.408Z,100.00
2023-04-30T05:54:23.056Z,100.00
2023-04-30T05:56:50.436Z,100.00
2023-04-30T05:59:17.771Z,100.00
2023-04-30T06:01:45.201Z,100.00
2023-04-30T06:04:12.715Z,100.00
2023-04-30T06:06:40.252Z,100.00
2023-04-30T06:09:07.895Z,100.00
2023-04-30T06:11:39.901Z,100.00
2023-04-30T06:14:10.752Z,100.00
2023-04-30T06:16:38.641Z,100.00
2023-04-30T06:19:05.934Z,100.00
2023-04-30T06:21:33.234Z,100.00
2023-04-30T06:24:01.052Z,100.00
2023-04-30T06:26:31.173Z,100.00
2023-04-30T06:28:58.595Z,100.00
2023-04-30T06:31:26.563Z,100.00
2023-04-30T06:33:54.263Z,100.00
2023-04-30T06:36:21.654Z,100.00
2023-04-30T06:38:49.407Z,100.00
2023-04-30T06:41:17.073Z,100.00
2023-04-30T06:43:45.132Z,100.00
2023-04-30T06:46:12.472Z,100.00
2023-04-30T06:48:39.890Z,100.00
2023-04-30T06:51:09.881Z,100.00
2023-04-30T06:53:38.345Z,100.00
2023-04-30T06:56:06.665Z,100.00
2023-04-30T06:58:34.161Z,100.00
2023-04-30T07:01:01.846Z,100.00
2023-04-30T07:03:29.531Z,100.00
2023-04-30T07:05:57.650Z,100.00
2023-04-30T07:08:25.054Z,100.00
2023-04-30T07:10:52.593Z,100.00
2023-04-30T07:13:20.049Z,100.00
2023-04-30T07:15:47.386Z,100.00
2023-04-30T07:18:15.007Z,100.00
2023-04-30T07:20:42.730Z,100.00
2023-04-30T07:23:10.109Z,100.00
2023-04-30T07:25:37.705Z,100.00
2023-04-30T07:28:05.347Z,100.00
2023-04-30T07:30:32.795Z,100.00
2023-04-30T07:33:00.242Z,100.00
2023-04-30T07:35:27.668Z,100.00
2023-04-30T07:37:55.165Z,100.00
2023-04-30T07:40:34.816Z,100.00
2023-04-30T07:43:04.790Z,100.00
2023-04-30T07:45:34.041Z,100.00
2023-04-30T07:48:02.031Z,100.00
2023-04-30T07:50:33.925Z,100.00
2023-04-30T07:53:01.874Z,100.00
2023-04-30T07:55:29.485Z,100.00
2023-04-30T07:57:56.834Z,100.00
2023-04-30T08:00:26.535Z,100.00
2023-04-30T08:02:54.015Z,100.00
2023-04-30T08:05:21.801Z,100.00
2023-04-30T08:07:49.238Z,100.00
2023-04-30T08:10:17.881Z,100.00
2023-04-30T08:12:45.546Z,100.00
2023-04-30T08:15:13.245Z,100.00
2023-04-30T08:17:42.917Z,100.00
2023-04-30T08:20:11.025Z,100.00
2023-04-30T08:22:38.337Z,100.00
2023-04-30T08:25:06.196Z,100.00
2023-04-30T08:27:33.614Z,100.00
2023-04-30T08:30:01.377Z,100.00
2023-04-30T08:32:30.202Z,100.00
2023-04-30T08:34:58.038Z,100.00
2023-04-30T08:37:25.731Z,100.00
2023-04-30T08:39:53.465Z,100.00
2023-04-30T08:42:24.376Z,100.00
2023-04-30T08:44:51.690Z,100.00
2023-04-30T08:47:20.903Z,100.00
2023-04-30T08:49:48.606Z,100.00
2023-04-30T08:52:16.384Z,100.00
2023-04-30T08:54:44.452Z,100.00
2023-04-30T08:57:11.930Z,100.00
2023-04-30T08:59:39.511Z,100.00
2023-04-30T09:02:07.868Z,100.00
2023-04-30T09:04:35.385Z,100.00
2023-04-30T09:07:05.945Z,100.00
2023-04-30T09:09:39.216Z,100.00
2023-04-30T09:12:19.939Z,100.00
2023-04-30T09:15:06.995Z,100.00
2023-04-30T09:17:36.170Z,100.00
2023-04-30T09:20:11.950Z,100.00
2023-04-30T09:22:41.432Z,100.00
2023-04-30T09:25:10.072Z,100.00
2023-04-30T09:27:38.387Z,100.00
2023-04-30T09:30:07.660Z,100.00
2023-04-30T09:32:35.599Z,100.00
2023-04-30T09:35:02.925Z,100.00
2023-04-30T09:37:39.711Z,100.00
2023-04-30T09:40:08.125Z,100.00
2023-04-30T09:42:35.970Z,100.00
2023-04-30T09:45:05.129Z,100.00
2023-04-30T09:47:33.599Z,100.00
2023-04-30T09:50:01.202Z,100.00
2023-04-30T09:52:29.048Z,100.00
2023-04-30T09:54:56.676Z,100.00
2023-04-30T09:57:24.997Z,100.00
2023-04-30T09:59:54.148Z,100.00
2023-04-30T10:02:24.054Z,100.00
2023-04-30T10:04:57.021Z,100.00
2023-04-30T10:07:29.850Z,100.00
2023-04-30T10:13:27.728Z,100.00
2023-04-30T10:16:07.557Z,100.00
2023-04-30T10:18:39.510Z,100.00
2023-04-30T10:21:12.739Z,100.00
2023-04-30T10:23:43.534Z,100.00
2023-04-30T10:26:14.430Z,100.00
2023-04-30T10:28:42.557Z,97.08
2023-04-30T10:31:11.157Z,100.00
2023-04-30T10:33:41.483Z,100.00
2023-04-30T10:36:15.034Z,100.00
2023-04-30T10:38:42.696Z,100.00
2023-04-30T10:41:10.885Z,100.00
2023-04-30T10:43:38.448Z,100.00
2023-04-30T10:46:05.837Z,100.00
2023-04-30T10:48:36.059Z,100.00
2023-04-30T10:51:04.119Z,98.20
2023-04-30T10:53:32.453Z,100.00
2023-04-30T10:56:12.143Z,96.45
2023-04-30T10:58:40.579Z,100.00
2023-04-30T11:01:17.745Z,100.00
2023-04-30T11:04:24.513Z,100.00
2023-04-30T11:06:54.917Z,100.00
2023-04-30T11:09:39.801Z,100.00
2023-04-30T11:12:33.191Z,100.00
2023-04-30T11:15:18.396Z,100.00
2023-04-30T11:17:48.209Z,100.00
2023-04-30T11:20:20.593Z,100.00
2023-04-30T11:22:48.369Z,100.00
2023-04-30T11:25:20.222Z,100.00
2023-04-30T11:27:47.938Z,100.00
2023-04-30T11:30:17.805Z,100.00
2023-04-30T11:32:47.889Z,100.00
2023-04-30T11:35:19.398Z,93.80
2023-04-30T11:37:48.996Z,95.27
2023-04-30T11:40:20.062Z,94.92
2023-04-30T11:42:48.452Z,100.00
2023-04-30T11:45:17.909Z,98.01
2023-04-30T11:47:47.061Z,100.00
2023-04-30T11:50:21.416Z,100.00
2023-04-30T11:52:51.744Z,80.78
2023-04-30T11:55:21.476Z,83.24
2023-04-30T11:57:51.465Z,92.05
2023-04-30T12:00:27.807Z,97.01
2023-04-30T12:02:56.517Z,86.67
2023-04-30T12:05:26.903Z,96.73
2023-04-30T12:08:00.413Z,81.97
2023-04-30T12:10:28.090Z,78.08
2023-04-30T12:12:56.217Z,71.58
2023-04-30T12:15:28.125Z,71.30
2023-04-30T12:17:57.557Z,84.25
2023-04-30T12:20:28.468Z,92.69
2023-04-30T12:22:58.925Z,82.88
2023-04-30T12:25:29.172Z,88.82
2023-04-30T12:27:59.622Z,79.99
2023-04-30T12:30:27.701Z,75.59
2023-04-30T12:32:58.769Z,73.79
2023-04-30T12:35:29.119Z,74.28
2023-04-30T12:38:05.395Z,69.91
2023-04-30T12:40:33.788Z,75.53
2023-04-30T12:43:05.954Z,81.18
2023-04-30T12:45:54.569Z,80.74
2023-04-30T12:48:24.674Z,70.48
2023-04-30T12:50:58.587Z,75.15
2023-04-30T12:53:26.818Z,75.88
2023-04-30T12:56:12.519Z,78.94
2023-04-30T12:58:40.647Z,73.44
2023-04-30T13:01:13.249Z,73.62
2023-04-30T13:03:43.432Z,66.62
2023-04-30T13:06:11.024Z,67.76
2023-04-30T13:08:49.651Z,65.02
2023-04-30T13:11:24.963Z,60.48
2023-04-30T13:13:57.973Z,71.29
2023-04-30T13:16:25.897Z,67.32
2023-04-30T13:18:54.440Z,69.53
2023-04-30T13:21:22.163Z,62.35
2023-04-30T13:23:53.565Z,59.72
2023-04-30T13:26:23.605Z,60.09
2023-04-30T13:28:51.822Z,59.30
2023-04-30T13:31:19.578Z,54.60
2023-04-30T13:33:47.362Z,60.58
2023-04-30T13:36:18.079Z,56.99
2023-04-30T13:38:45.633Z,56.31
2023-04-30T13:41:13.559Z,55.09
2023-04-30T13:43:44.861Z,51.26
2023-04-30T13:46:12.624Z,53.38
2023-04-30T13:48:40.140Z,57.23
2023-04-30T13:51:07.555Z,55.08
2023-04-30T13:53:36.812Z,56.53
2023-04-30T13:56:04.383Z,50.57
2023-04-30T13:58:33.011Z,52.88
2023-04-30T14:01:00.577Z,50.12
2023-04-30T14:03:28.219Z,51.02
2023-04-30T14:05:55.824Z,50.25
2023-04-30T14:08:23.736Z,47.29
2023-04-30T14:10:51.824Z,47.34
2023-04-30T14:13:19.967Z,48.47
2023-04-30T14:15:48.210Z,45.17
2023-04-30T14:18:15.900Z,45.11
2023-04-30T14:20:43.302Z,46.03
2023-04-30T14:23:10.622Z,50.14
2023-04-30T14:25:38.392Z,49.68
2023-04-30T14:28:05.937Z,46.57
2023-04-30T14:30:33.483Z,49.58
2023-04-30T14:33:01.066Z,52.96
2023-04-30T14:35:28.812Z,50.83
2023-04-30T14:37:56.212Z,48.63
2023-04-30T14:40:23.628Z,50.77
2023-04-30T14:42:51.362Z,50.82
2023-04-30T14:45:18.877Z,51.03
2023-04-30T14:47:46.453Z,52.67
2023-04-30T14:50:14.449Z,47.58
2023-04-30T14:52:42.485Z,50.82
2023-04-30T14:55:10.143Z,47.68
2023-04-30T14:57:37.923Z,49.40
2023-04-30T15:00:06.930Z,52.45
2023-04-30T15:02:34.781Z,49.87
2023-04-30T15:05:05.725Z,48.93
2023-04-30T15:07:33.364Z,48.49
2023-04-30T15:10:00.897Z,50.22
2023-04-30T15:12:28.400Z,55.13
2023-04-30T15:14:55.930Z,50.94
2023-04-30T15:17:24.207Z,51.96
2023-04-30T15:19:51.657Z,49.29
2023-04-30T15:22:19.084Z,50.54
2023-04-30T15:24:46.458Z,51.38
2023-04-30T15:27:13.959Z,48.58
2023-04-30T15:29:41.923Z,49.99
2023-04-30T15:32:09.521Z,54.07
2023-04-30T15:34:37.020Z,54.41
2023-04-30T15:37:05.276Z,54.35
2023-04-30T15:39:32.574Z,56.03
2023-04-30T15:41:59.949Z,52.91
2023-04-30T15:44:27.516Z,52.84
2023-04-30T15:46:55.961Z,54.43
2023-04-30T15:49:23.417Z,53.25
2023-04-30T15:51:53.876Z,53.16
2023-04-30T15:54:21.401Z,54.25
2023-04-30T15:56:48.981Z,53.71
2023-04-30T15:59:17.689Z,52.76
2023-04-30T16:01:47.245Z,52.88
2023-04-30T16:04:14.765Z,52.90
2023-04-30T16:06:42.528Z,54.08
2023-04-30T16:09:10.172Z,55.91
2023-04-30T16:11:37.731Z,55.57
2023-04-30T16:14:05.059Z,54.04
2023-04-30T16:16:32.647Z,54.97
2023-04-30T16:19:02.996Z,58.16
2023-04-30T16:21:34.611Z,54.93
2023-04-30T16:24:03.303Z,56.89
2023-04-30T16:26:30.855Z,54.68
2023-04-30T16:28:58.323Z,53.71
2023-04-30T16:31:25.935Z,52.10
2023-04-30T16:33:53.799Z,54.88
2023-04-30T16:36:21.377Z,55.52
2023-04-30T16:38:48.897Z,57.21
2023-04-30T16:41:17.545Z,57.18
2023-04-30T16:43:45.920Z,56.06
2023-04-30T16:46:16.615Z,57.72
2023-04-30T16:48:44.431Z,55.86
2023-04-30T16:51:12.156Z,59.13
2023-04-30T16:53:40.163Z,56.56
2023-04-30T16:56:07.678Z,56.68
2023-04-30T16:58:35.161Z,58.33
2023-04-30T17:01:02.560Z,58.89
2023-04-30T17:03:30.915Z,56.93
2023-04-30T17:05:58.665Z,54.96
2023-04-30T17:08:26.334Z,55.90
2023-04-30T17:10:53.603Z,59.46
2023-04-30T17:13:21.156Z,62.69
2023-04-30T17:15:49.033Z,61.39
2023-04-30T17:18:16.569Z,61.00
2023-04-30T17:20:45.798Z,61.56
2023-04-30T17:23:13.340Z,63.36
2023-04-30T17:25:40.773Z,64.65
2023-04-30T17:28:08.406Z,65.71
2023-04-30T17:30:36.278Z,66.95
2023-04-30T17:33:04.585Z,65.55
2023-04-30T17:35:31.923Z,64.43
2023-04-30T17:38:02.534Z,64.68
2023-04-30T17:40:31.624Z,65.96
2023-04-30T17:42:58.990Z,68.42
2023-04-30T17:45:31.499Z,69.84
2023-04-30T17:48:00.949Z,69.90
2023-04-30T17:50:32.186Z,68.31
2023-04-30T17:53:03.270Z,67.89
2023-04-30T17:55:32.510Z,68.88
2023-04-30T17:58:00.607Z,69.21
2023-04-30T18:00:28.133Z,71.28
2023-04-30T18:02:56.040Z,70.96
2023-04-30T18:05:23.588Z,71.42
2023-04-30T18:07:51.011Z,73.46
2023-04-30T18:11:16.990Z,73.76
2023-04-30T18:13:45.088Z,75.15
2023-04-30T18:16:14.239Z,75.42
2023-04-30T18:18:41.679Z,76.71
2023-04-30T18:21:09.333Z,77.32
2023-04-30T18:23:37.172Z,77.69
2023-04-30T18:26:05.805Z,77.55
2023-04-30T18:28:41.273Z,79.11
2023-04-30T18:31:13.277Z,78.13
2023-04-30T18:33:42.626Z,79.39
2023-04-30T18:36:10.863Z,79.30
2023-04-30T18:38:39.038Z,80.22
2023-04-30T18:41:07.465Z,78.71
2023-04-30T18:43:37.267Z,79.01
2023-04-30T18:46:06.218Z,79.12
2023-04-30T18:48:34.427Z,78.33
2023-04-30T18:51:01.924Z,79.61
2023-04-30T18:53:29.498Z,79.40
2023-04-30T18:55:59.979Z,76.87
2023-04-30T18:58:27.581Z,75.70
2023-04-30T19:00:58.282Z,75.86
2023-04-30T19:03:26.920Z,75.59
2023-04-30T19:05:58.967Z,75.00
2023-04-30T19:08:26.583Z,74.65
2023-04-30T19:10:55.970Z,72.76
2023-04-30T19:13:23.839Z,71.88
2023-04-30T19:15:53.095Z,71.78
2023-04-30T19:18:33.866Z,72.38
2023-04-30T19:21:02.522Z,72.52
2023-04-30T19:23:30.861Z,72.11
2023-04-30T19:25:59.314Z,72.50
2023-04-30T19:28:27.499Z,71.70
2023-04-30T19:30:55.697Z,71.45
2023-04-30T19:33:24.758Z,71.65
2023-04-30T19:35:55.567Z,72.29
2023-04-30T19:38:23.456Z,72.23
2023-04-30T19:40:52.358Z,72.82
2023-04-30T19:43:20.661Z,72.43
2023-04-30T19:45:52.059Z,72.53
2023-04-30T19:48:21.276Z,72.52
2023-04-30T19:50:50.258Z,72.62
2023-04-30T19:53:20.065Z,72.36
2023-04-30T19:55:48.443Z,72.05
2023-04-30T19:58:15.944Z,71.66
2023-04-30T20:00:47.710Z,72.07
2023-04-30T20:03:17.121Z,73.63
2023-04-30T20:05:44.919Z,76.75
2023-04-30T20:08:12.544Z,77.49
2023-04-30T20:10:41.077Z,82.28
2023-04-30T20:13:09.552Z,85.73
2023-04-30T20:15:37.071Z,89.05
2023-04-30T20:18:07.557Z,90.60
2023-04-30T20:20:35.257Z,96.48
2023-04-30T20:23:17.778Z,99.52
2023-04-30T20:25:46.406Z,100.00
2023-04-30T20:28:16.153Z,96.82
2023-04-30T20:30:48.285Z,95.43
2023-04-30T20:33:15.910Z,94.79
2023-04-30T20:35:47.539Z,90.62
2023-04-30T20:38:19.624Z,90.32
2023-04-30T20:40:47.314Z,90.64
2023-04-30T20:43:15.386Z,91.19
2023-04-30T20:45:46.548Z,89.58
2023-04-30T20:48:14.163Z,90.11
2023-04-30T20:50:41.641Z,90.06
2023-04-30T20:53:11.151Z,90.05
2023-04-30T20:55:38.716Z,87.57
2023-04-30T20:58:07.044Z,86.58
2023-04-30T21:00:35.033Z,87.04
2023-04-30T21:03:02.651Z,87.24
2023-04-30T21:05:30.387Z,86.87
2023-04-30T21:08:01.585Z,86.97
2023-04-30T21:10:36.513Z,87.33
2023-04-30T21:13:05.922Z,86.67
2023-04-30T21:15:35.414Z,85.57
2023-04-30T21:18:03.213Z,84.98
2023-04-30T21:20:31.781Z,84.91
2023-04-30T21:22:59.879Z,87.04
2023-04-30T21:25:27.406Z,86.21
2023-04-30T21:27:55.815Z,84.58
2023-04-30T21:30:25.856Z,84.49
2023-04-30T21:32:58.812Z,83.17
2023-04-30T21:35:29.841Z,83.44
2023-04-30T21:37:57.305Z,82.05
2023-04-30T21:40:24.678Z,81.52
2023-04-30T21:42:53.152Z,82.09
2023-04-30T21:45:20.636Z,79.18
2023-04-30T21:47:48.673Z,77.87
2023-04-30T21:50:16.572Z,77.35
2023-04-30T21:52:44.187Z,78.32
2023-04-30T21:55:12.460Z,79.09
2023-04-30T21:57:39.978Z,77.77
2023-04-30T22:00:08.754Z,77.43
2023-04-30T22:02:37.477Z,78.29
2023-04-30T22:05:06.583Z,77.66
2023-04-30T22:07:34.007Z,78.68
2023-04-30T22:10:02.933Z,82.40
2023-04-30T22:12:31.098Z,88.03
2023-04-30T22:14:59.122Z,93.33
2023-04-30T22:17:28.866Z,97.32
2023-04-30T22:19:57.737Z,100.00
2023-04-30T22:22:25.532Z,100.00
2023-04-30T22:24:53.141Z,95.65
2023-04-30T22:27:20.511Z,91.69
2023-04-30T22:29:49.854Z,94.68
2023-04-30T22:32:19.380Z,100.00
2023-04-30T22:34:46.814Z,100.00
2023-04-30T22:37:14.178Z,100.00
2023-04-30T22:39:42.500Z,100.00
2023-04-30T22:42:10.217Z,100.00
2023-04-30T22:44:37.917Z,100.00
2023-04-30T22:47:06.146Z,100.00
2023-04-30T22:49:34.471Z,100.00
2023-04-30T22:52:02.772Z,100.00
2023-04-30T22:54:30.976Z,100.00
2023-04-30T22:56:58.554Z,100.00
2023-04-30T22:59:26.049Z,100.00
2023-04-30T23:01:53.514Z,100.00
2023-04-30T23:04:21.210Z,100.00
2023-04-30T23:06:51.796Z,100.00
2023-04-30T23:09:19.724Z,100.00
2023-04-30T23:11:47.786Z,100.00
2023-04-30T23:14:15.037Z,100.00
2023-04-30T23:16:42.900Z,100.00
2023-04-30T23:19:10.944Z,100.00
2023-04-30T23:21:38.691Z,100.00
2023-04-30T23:24:06.015Z,100.00
2023-04-30T23:26:33.983Z,100.00
2023-04-30T23:29:01.738Z,100.00
2023-04-30T23:31:28.993Z,100.00
2023-04-30T23:33:56.290Z,100.00
2023-04-30T23:36:23.636Z,100.00
2023-04-30T23:38:51.466Z,100.00
2023-04-30T23:41:19.099Z,100.00
2023-04-30T23:43:49.239Z,100.00
2023-04-30T23:46:16.848Z,100.00
2023-04-30T23:48:44.220Z,100.00
2023-04-30T23:51:14.140Z,100.00
2023-04-30T23:53:42.705Z,100.00
2023-04-30T23:56:10.038Z,100.00
2023-04-30T23:58:37.472Z,100.00
